createdAt,value
2022-10-23T00:00:47.839Z,100566.41
2022-10-23T00:03:36.337Z,100554.06
2022-10-23T00:06:25.720Z,100551.00
2022-10-23T00:09:16.904Z,100556.97
2022-10-23T00:12:07.061Z,100563.72
2022-10-23T00:14:55.611Z,100558.78
2022-10-23T00:17:44.280Z,100561.06
2022-10-23T00:20:33.045Z,100563.72
2022-10-23T00:23:21.465Z,100556.72
2022-10-23T00:26:11.227Z,100557.16
2022-10-23T00:29:00.994Z,100557.16
2022-10-23T00:31:49.403Z,100545.41
2022-10-23T00:34:42.167Z,100549.34
2022-10-23T00:37:30.559Z,100547.28
2022-10-23T00:40:19.172Z,100537.78
2022-10-23T00:43:08.706Z,100545.63
2022-10-23T00:45:59.159Z,100545.22
2022-10-23T00:48:47.587Z,100548.50
2022-10-23T00:51:40.066Z,100538.63
2022-10-23T00:54:31.431Z,100547.06
2022-10-23T00:57:19.961Z,100548.91
2022-10-23T01:00:09.776Z,100558.16
2022-10-23T01:02:59.811Z,100549.09
2022-10-23T01:05:51.846Z,100556.72
2022-10-23T01:08:47.554Z,100551.78
2022-10-23T01:11:41.049Z,100549.28
2022-10-23T01:14:33.742Z,100549.28
2022-10-23T01:17:27.924Z,100555.06
2022-10-23T01:20:29.370Z,100554.66
2022-10-23T01:23:38.005Z,100563.72
2022-10-23T01:26:45.778Z,100559.19
2022-10-23T01:29:38.559Z,100560.66
2022-10-23T01:32:31.506Z,100563.50
2022-10-23T01:35:23.671Z,100561.44
2022-10-23T01:38:14.780Z,100554.25
2022-10-23T01:41:05.753Z,100552.81
2022-10-23T01:43:55.974Z,100558.78
2022-10-23T01:46:47.106Z,100559.59
2022-10-23T01:49:36.240Z,100558.34
2022-10-23T01:52:24.827Z,100558.78
2022-10-23T01:55:13.903Z,100551.56
2022-10-23T01:58:04.386Z,100558.16
2022-10-23T02:00:54.312Z,100557.53
2022-10-23T02:03:45.267Z,100553.84
2022-10-23T02:06:33.756Z,100553.00
2022-10-23T02:09:22.183Z,100553.22
2022-10-23T02:12:12.178Z,100543.88
2022-10-23T02:15:04.995Z,100537.34
2022-10-23T02:18:00.277Z,100544.16
2022-10-23T02:20:54.128Z,100548.06
2022-10-23T02:23:52.459Z,100541.91
2022-10-23T02:26:45.630Z,100544.91
2022-10-23T02:29:38.887Z,100532.84
2022-10-23T02:32:28.925Z,100529.91
2022-10-23T02:35:17.832Z,100525.00
2022-10-23T02:38:33.069Z,100530.97
2022-10-23T02:41:29.681Z,100530.31
2022-10-23T02:44:30.696Z,100542.25
2022-10-23T02:47:32.376Z,100529.91
2022-10-23T02:50:28.346Z,100521.25
2022-10-23T02:53:21.564Z,100531.78
2022-10-23T02:56:15.247Z,100526.59
2022-10-23T02:59:08.475Z,100532.38
2022-10-23T03:02:03.740Z,100534.81
2022-10-23T03:04:53.806Z,100532.38
2022-10-23T03:07:42.919Z,100526.19
2022-10-23T03:10:31.551Z,100531.53
2022-10-23T03:13:23.788Z,100527.03
2022-10-23T03:16:12.240Z,100520.44
2022-10-23T03:19:00.820Z,100522.50
2022-10-23T03:21:49.445Z,100531.16
2022-10-23T03:24:38.036Z,100533.59
2022-10-23T03:27:26.499Z,100534.44
2022-10-23T03:30:17.597Z,100529.69
2022-10-23T03:33:06.153Z,100534.44
2022-10-23T03:35:54.790Z,100522.50
2022-10-23T03:38:43.284Z,100521.06
2022-10-23T03:41:32.041Z,100535.66
2022-10-23T03:44:20.899Z,100531.97
2022-10-23T03:47:11.905Z,100529.69
2022-10-23T03:50:00.406Z,100534.03
2022-10-23T03:52:48.976Z,100531.53
2022-10-23T03:55:37.475Z,100528.66
2022-10-23T03:58:26.078Z,100527.03
2022-10-23T04:01:14.557Z,100525.38
2022-10-23T04:04:04.605Z,100537.31
2022-10-23T04:06:53.254Z,100531.97
2022-10-23T04:09:41.817Z,100542.66
2022-10-23T04:12:30.419Z,100534.44
2022-10-23T04:15:19.109Z,100528.25
2022-10-23T04:18:07.670Z,100520.44
2022-10-23T04:20:57.605Z,100537.31
2022-10-23T04:23:46.147Z,100519.63
2022-10-23T04:26:34.745Z,100517.97
2022-10-23T04:29:24.554Z,100515.09
2022-10-23T04:32:13.282Z,100525.38
2022-10-23T04:35:01.674Z,100520.44
2022-10-23T04:37:51.544Z,100530.31
2022-10-23T04:40:40.050Z,100532.38
2022-10-23T04:43:28.534Z,100527.81
2022-10-23T04:46:17.073Z,100527.03
2022-10-23T04:49:05.527Z,100520.44
2022-10-23T04:51:55.351Z,100519.19
2022-10-23T04:54:48.496Z,100529.91
2022-10-23T04:57:36.852Z,100525.38
2022-10-23T05:00:25.594Z,100532.78
2022-10-23T05:03:15.412Z,100539.97
2022-10-23T05:06:04.100Z,100536.09
2022-10-23T05:08:52.588Z,100528.25
2022-10-23T05:11:42.374Z,100519.19
2022-10-23T05:14:30.956Z,100519.81
2022-10-23T05:17:23.394Z,100525.38
2022-10-23T05:20:15.427Z,100523.75
2022-10-23T05:23:04.039Z,100533.59
2022-10-23T05:25:52.618Z,100533.59
2022-10-23T05:28:44.639Z,100531.97
2022-10-23T05:31:34.704Z,100530.31
2022-10-23T05:34:24.314Z,100529.28
2022-10-23T05:37:14.587Z,100530.31
2022-10-23T05:40:03.063Z,100526.59
2022-10-23T05:42:52.898Z,100520.22
2022-10-23T05:45:42.855Z,100527.03
2022-10-23T05:48:34.603Z,100515.28
2022-10-23T05:51:23.677Z,100516.09
2022-10-23T05:54:12.076Z,100515.28
2022-10-23T05:57:00.544Z,100504.78
2022-10-23T05:59:48.948Z,100515.47
2022-10-23T06:02:39.037Z,100521.66
2022-10-23T06:05:27.588Z,100529.69
2022-10-23T06:08:16.065Z,100522.69
2022-10-23T06:11:09.147Z,100521.06
2022-10-23T06:16:53.695Z,100528.25
2022-10-23T06:19:47.980Z,100532.13
2022-10-23T06:22:37.017Z,100527.44
2022-10-23T06:25:31.453Z,100524.75
2022-10-23T06:28:22.961Z,100524.75
2022-10-23T06:31:13.771Z,100524.13
2022-10-23T06:34:02.390Z,100525.75
2022-10-23T06:36:52.443Z,100527.44
2022-10-23T06:39:41.532Z,100529.47
2022-10-23T06:42:30.888Z,100529.06
2022-10-23T06:45:19.502Z,100531.75
2022-10-23T06:48:08.135Z,100534.81
2022-10-23T06:50:56.834Z,100535.47
2022-10-23T06:53:47.030Z,100543.88
2022-10-23T06:56:35.918Z,100541.44
2022-10-23T06:59:24.462Z,100538.75
2022-10-23T07:02:12.932Z,100538.13
2022-10-23T07:05:01.571Z,100536.06
2022-10-23T07:07:50.026Z,100531.75
2022-10-23T07:10:42.728Z,100537.72
2022-10-23T07:13:31.283Z,100538.13
2022-10-23T07:16:21.176Z,100539.78
2022-10-23T07:19:10.735Z,100540.59
2022-10-23T07:21:59.255Z,100548.41
2022-10-23T07:24:47.715Z,100546.34
2022-10-23T07:27:39.826Z,100541.44
2022-10-23T07:30:28.417Z,100541.00
2022-10-23T07:33:18.154Z,100539.38
2022-10-23T07:36:07.770Z,100541.44
2022-10-23T07:38:56.371Z,100545.91
2022-10-23T07:41:45.000Z,100552.47
2022-10-23T07:44:36.022Z,100530.66
2022-10-23T07:47:24.551Z,100524.44
2022-10-23T07:50:13.153Z,100536.38
2022-10-23T07:53:01.826Z,100529.97
2022-10-23T07:55:55.073Z,100528.75
2022-10-23T07:58:43.923Z,100531.41
2022-10-23T08:01:37.471Z,100519.50
2022-10-23T08:04:27.641Z,100519.50
2022-10-23T08:07:17.411Z,100530.59
2022-10-23T08:10:06.825Z,100531.22
2022-10-23T08:12:55.588Z,100528.56
2022-10-23T08:15:46.367Z,100537.63
2022-10-23T08:18:36.235Z,100536.38
2022-10-23T08:21:24.713Z,100533.94
2022-10-23T08:24:13.965Z,100528.97
2022-10-23T08:27:02.897Z,100530.00
2022-10-23T08:29:51.815Z,100525.31
2022-10-23T08:32:40.241Z,100523.25
2022-10-23T08:35:30.145Z,100512.56
2022-10-23T08:38:18.691Z,100516.69
2022-10-23T08:41:08.742Z,100519.16
2022-10-23T08:44:02.355Z,100516.69
2022-10-23T08:47:01.297Z,100514.25
2022-10-23T08:49:52.778Z,100507.25
2022-10-23T08:52:47.672Z,100510.53
2022-10-23T08:55:37.894Z,100516.31
2022-10-23T08:58:35.243Z,100507.66
2022-10-23T09:01:33.559Z,100507.25
2022-10-23T09:04:22.002Z,100510.13
2022-10-23T09:07:17.801Z,100512.59
2022-10-23T09:10:23.863Z,100493.03
2022-10-23T09:13:37.025Z,100491.63
2022-10-23T09:16:33.277Z,100490.38
2022-10-23T09:19:26.407Z,100480.50
2022-10-23T09:22:15.212Z,100487.94
2022-10-23T09:25:03.736Z,100482.34
2022-10-23T09:27:56.681Z,100476.63
2022-10-23T09:30:46.709Z,100476.84
2022-10-23T09:33:37.122Z,100486.31
2022-10-23T09:36:29.100Z,100491.06
2022-10-23T09:39:24.205Z,100482.63
2022-10-23T09:42:27.863Z,100485.28
2022-10-23T09:45:26.776Z,100485.50
2022-10-23T09:48:17.412Z,100487.13
2022-10-23T09:51:17.504Z,100493.75
2022-10-23T09:54:06.261Z,100488.41
2022-10-23T09:56:56.317Z,100484.69
2022-10-23T09:59:47.966Z,100483.44
2022-10-23T10:02:38.692Z,100484.28
2022-10-23T10:05:29.818Z,100480.16
2022-10-23T10:08:27.861Z,100486.09
2022-10-23T10:11:20.840Z,100475.00
2022-10-23T10:14:30.972Z,100478.50
2022-10-23T10:17:25.738Z,100484.28
2022-10-23T10:20:29.568Z,100467.78
2022-10-23T10:23:27.441Z,100468.22
2022-10-23T10:26:26.288Z,100471.09
2022-10-23T10:29:24.033Z,100468.63
2022-10-23T10:32:20.885Z,100461.03
2022-10-23T10:35:24.710Z,100457.09
2022-10-23T10:38:31.923Z,100456.66
2022-10-23T10:41:31.356Z,100453.00
2022-10-23T10:44:40.436Z,100440.59
2022-10-23T10:47:33.702Z,100442.66
2022-10-23T10:50:28.064Z,100447.63
2022-10-23T10:53:23.129Z,100425.81
2022-10-23T10:56:16.581Z,100426.00
2022-10-23T10:59:08.040Z,100419.63
2022-10-23T11:02:03.895Z,100415.28
2022-10-23T11:04:54.773Z,100416.31
2022-10-23T11:07:56.209Z,100414.69
2022-10-23T11:10:47.700Z,100406.03
2022-10-23T11:13:37.925Z,100401.91
2022-10-23T11:16:28.643Z,100399.44
2022-10-23T11:19:22.745Z,100401.50
2022-10-23T11:22:13.705Z,100402.75
2022-10-23T11:25:33.674Z,100399.44
2022-10-23T11:28:33.987Z,100389.97
2022-10-23T11:31:29.572Z,100376.78
2022-10-23T11:34:51.488Z,100376.78
2022-10-23T11:37:39.974Z,100375.13
2022-10-23T11:40:30.855Z,100366.88
2022-10-23T11:43:28.859Z,100363.19
2022-10-23T11:46:31.437Z,100361.13
2022-10-23T11:49:24.067Z,100364.63
2022-10-23T11:52:23.960Z,100360.72
2022-10-23T11:55:19.910Z,100350.00
2022-10-23T11:58:23.126Z,100355.16
2022-10-23T12:01:26.879Z,100351.88
2022-10-23T12:04:22.703Z,100346.94
2022-10-23T12:07:18.474Z,100349.63
2022-10-23T12:10:09.402Z,100354.56
2022-10-23T12:12:59.298Z,100354.16
2022-10-23T12:15:57.143Z,100347.56
2022-10-23T12:18:53.589Z,100340.94
2022-10-23T12:21:42.389Z,100335.19
2022-10-23T12:24:39.735Z,100332.50
2022-10-23T12:27:33.083Z,100329.84
2022-10-23T12:30:23.324Z,100322.84
2022-10-23T12:33:20.631Z,100322.84
2022-10-23T12:36:32.777Z,100322.00
2022-10-23T12:39:28.644Z,100310.88
2022-10-23T12:42:19.047Z,100301.81
2022-10-23T12:45:17.621Z,100298.13
2022-10-23T12:48:06.939Z,100293.00
2022-10-23T12:50:57.405Z,100289.09
2022-10-23T12:53:50.131Z,100278.16
2022-10-23T12:56:39.035Z,100276.31
2022-10-23T12:59:31.610Z,100271.78
2022-10-23T13:02:24.728Z,100276.69
2022-10-23T13:05:15.706Z,100265.38
2022-10-23T13:08:05.697Z,100266.00
2022-10-23T13:10:54.180Z,100253.25
2022-10-23T13:13:43.248Z,100258.59
2022-10-23T13:16:31.785Z,100258.81
2022-10-23T13:19:25.972Z,100249.94
2022-10-23T13:22:19.607Z,100252.00
2022-10-23T13:25:23.870Z,100247.88
2022-10-23T13:28:24.961Z,100247.69
2022-10-23T13:31:31.356Z,100241.94
2022-10-23T13:34:25.058Z,100237.22
2022-10-23T13:37:29.045Z,100238.03
2022-10-23T13:40:26.781Z,100244.22
2022-10-23T13:43:16.328Z,100247.09
2022-10-23T13:46:05.006Z,100253.66
2022-10-23T13:48:53.704Z,100242.94
2022-10-23T13:51:43.334Z,100239.66
2022-10-23T13:54:31.985Z,100229.56
2022-10-23T13:57:21.753Z,100233.09
2022-10-23T14:00:12.097Z,100234.91
2022-10-23T14:03:00.512Z,100235.53
2022-10-23T14:05:49.083Z,100233.66
2022-10-23T14:08:37.525Z,100234.28
2022-10-23T14:11:26.083Z,100234.28
2022-10-23T14:14:15.989Z,100222.38
2022-10-23T14:17:05.534Z,100218.25
2022-10-23T14:19:55.539Z,100218.69
2022-10-23T14:22:44.417Z,100208.38
2022-10-23T14:25:33.029Z,100203.19
2022-10-23T14:28:21.501Z,100206.09
2022-10-23T14:31:13.707Z,100202.38
2022-10-23T14:34:02.275Z,100197.22
2022-10-23T14:37:03.861Z,100193.13
2022-10-23T14:39:56.349Z,100189.41
2022-10-23T14:42:44.963Z,100185.53
2022-10-23T14:45:33.650Z,100184.06
2022-10-23T14:48:23.493Z,100182.41
2022-10-23T14:51:19.097Z,100188.19
2022-10-23T14:54:08.675Z,100180.16
2022-10-23T14:56:57.095Z,100190.69
2022-10-23T14:59:45.541Z,100179.56
2022-10-23T15:02:35.401Z,100175.84
2022-10-23T15:05:25.263Z,100170.53
2022-10-23T15:08:13.986Z,100148.28
2022-10-23T15:11:02.844Z,100158.59
2022-10-23T15:13:51.414Z,100154.91
2022-10-23T15:16:42.074Z,100151.41
2022-10-23T15:19:30.512Z,100148.31
2022-10-23T15:22:20.805Z,100162.31
2022-10-23T15:25:13.152Z,100156.16
2022-10-23T15:28:03.978Z,100159.88
2022-10-23T15:30:52.513Z,100154.56
2022-10-23T15:33:40.917Z,100149.59
2022-10-23T15:36:29.374Z,100145.09
2022-10-23T15:39:21.531Z,100146.31
2022-10-23T15:42:11.255Z,100138.53
2022-10-23T15:44:59.628Z,100147.34
2022-10-23T15:47:48.031Z,100140.16
2022-10-23T15:50:38.472Z,100145.13
2022-10-23T15:53:26.945Z,100151.66
2022-10-23T15:56:16.896Z,100147.97
2022-10-23T15:59:05.321Z,100142.59
2022-10-23T16:01:55.501Z,100125.34
2022-10-23T16:04:44.331Z,100122.06
2022-10-23T16:07:33.106Z,100136.66
2022-10-23T16:10:22.849Z,100127.41
2022-10-23T16:13:13.662Z,100129.06
2022-10-23T16:16:07.054Z,100120.44
2022-10-23T16:18:56.575Z,100124.53
2022-10-23T16:21:45.030Z,100118.78
2022-10-23T16:24:33.934Z,100127.63
2022-10-23T16:27:22.371Z,100122.06
2022-10-23T16:30:14.203Z,100116.13
2022-10-23T16:33:04.174Z,100123.31
2022-10-23T16:35:52.704Z,100117.75
2022-10-23T16:38:41.176Z,100114.03
2022-10-23T16:41:29.617Z,100110.16
2022-10-23T16:44:18.082Z,100104.38
2022-10-23T16:47:07.929Z,100101.09
2022-10-23T16:49:56.396Z,100105.41
2022-10-23T16:52:45.264Z,100101.91
2022-10-23T16:55:34.126Z,100108.25
2022-10-23T16:58:22.918Z,100096.38
2022-10-23T17:01:13.252Z,100096.16
2022-10-23T17:04:03.437Z,100094.91
2022-10-23T17:06:51.985Z,100098.63
2022-10-23T17:09:40.629Z,100092.44
2022-10-23T17:12:29.014Z,100078.06
2022-10-23T17:15:17.514Z,100081.75
2022-10-23T17:18:06.186Z,100074.00
2022-10-23T17:20:59.739Z,100072.75
2022-10-23T17:23:48.454Z,100062.13
2022-10-23T17:26:37.704Z,100062.13
2022-10-23T17:29:26.189Z,100051.47
2022-10-23T17:32:14.791Z,100051.41
2022-10-23T17:35:03.543Z,100060.72
2022-10-23T17:37:55.365Z,100060.34
2022-10-23T17:43:38.293Z,100059.03
2022-10-23T17:46:27.401Z,100048.59
2022-10-23T17:49:15.901Z,100045.31
2022-10-23T17:52:04.568Z,100046.09
2022-10-23T17:54:54.511Z,100025.41
2022-10-23T17:57:43.248Z,100022.78
2022-10-23T18:00:32.109Z,100029.81
2022-10-23T18:03:20.913Z,100025.50
2022-10-23T18:06:10.066Z,100033.59
2022-10-23T18:08:58.774Z,100017.91
2022-10-23T18:11:50.144Z,100024.44
2022-10-23T18:14:39.692Z,100023.25
2022-10-23T18:17:28.445Z,100025.81
2022-10-23T18:20:17.001Z,100019.34
2022-10-23T18:23:07.134Z,100019.81
2022-10-23T18:25:55.845Z,100004.16
2022-10-23T18:28:46.574Z,100012.94
2022-10-23T18:31:37.309Z,99991.53
2022-10-23T18:34:26.862Z,99986.44
2022-10-23T18:37:15.317Z,99986.31
2022-10-23T18:40:04.112Z,99992.84
2022-10-23T18:42:52.754Z,99985.59
2022-10-23T18:45:43.978Z,99989.19
2022-10-23T18:48:32.588Z,99983.38
2022-10-23T18:51:23.512Z,99973.53
2022-10-23T18:54:14.176Z,99954.19
2022-10-23T18:57:02.623Z,99938.59
2022-10-23T18:59:51.398Z,99943.16
2022-10-23T19:02:41.698Z,99946.47
2022-10-23T19:05:30.301Z,99946.06
2022-10-23T19:08:18.941Z,99967.38
2022-10-23T19:11:08.085Z,99970.34
2022-10-23T19:13:56.800Z,99975.06
2022-10-23T19:17:00.366Z,99977.59
2022-10-23T19:19:53.488Z,99976.75
2022-10-23T19:22:43.997Z,99969.22
2022-10-23T19:25:34.828Z,99969.81
2022-10-23T19:28:24.631Z,99944.94
2022-10-23T19:31:13.475Z,99937.31
2022-10-23T19:34:01.959Z,99948.03
2022-10-23T19:36:53.138Z,99939.41
2022-10-23T19:39:41.549Z,99934.06
2022-10-23T19:42:30.046Z,99939.00
2022-10-23T19:45:19.323Z,99938.38
2022-10-23T19:48:10.511Z,99927.91
2022-10-23T19:50:59.750Z,99917.22
2022-10-23T19:56:50.204Z,99902.78
2022-10-23T19:59:38.876Z,99903.59
2022-10-23T20:02:32.383Z,99895.75
2022-10-23T20:05:23.370Z,99896.56
2022-10-23T20:08:12.390Z,99893.53
2022-10-23T20:11:02.253Z,99890.41
2022-10-23T20:13:51.305Z,99887.13
2022-10-23T20:16:40.973Z,99879.38
2022-10-23T20:19:29.587Z,99870.91
2022-10-23T20:22:20.645Z,99873.59
2022-10-23T20:25:09.584Z,99864.84
2022-10-23T20:27:59.502Z,99866.81
2022-10-23T20:30:48.069Z,99881.56
2022-10-23T20:33:36.956Z,99880.31
2022-10-23T20:36:27.987Z,99865.31
2022-10-23T20:39:17.894Z,99858.53
2022-10-23T20:42:07.336Z,99854.28
2022-10-23T20:44:57.439Z,99852.88
2022-10-23T20:47:46.957Z,99853.78
2022-10-23T20:50:36.130Z,99860.97
2022-10-23T20:53:24.625Z,99859.66
2022-10-23T20:56:14.925Z,99876.97
2022-10-23T20:59:05.861Z,99883.41
2022-10-23T21:01:57.247Z,99890.41
2022-10-23T21:04:47.673Z,99906.00
2022-10-23T21:07:36.210Z,99906.28
2022-10-23T21:10:24.657Z,99897.13
2022-10-23T21:13:13.135Z,99906.63
2022-10-23T21:16:01.774Z,99902.31
2022-10-23T21:18:51.916Z,99904.25
2022-10-23T21:21:40.707Z,99910.50
2022-10-23T21:24:29.309Z,99943.56
2022-10-23T21:27:17.981Z,99960.84
2022-10-23T21:30:08.139Z,99963.69
2022-10-23T21:32:56.618Z,99987.53
2022-10-23T21:35:58.089Z,100000.59
2022-10-23T21:38:55.067Z,100000.84
2022-10-23T21:41:43.623Z,100015.38
2022-10-23T21:44:32.039Z,100027.06
2022-10-23T21:47:20.839Z,100033.19
2022-10-23T21:50:10.061Z,100039.59
2022-10-23T21:52:59.883Z,100038.03
2022-10-23T21:55:48.514Z,100059.03
2022-10-23T21:58:37.642Z,100052.09
2022-10-23T22:01:26.450Z,100020.72
2022-10-23T22:04:30.685Z,100027.69
2022-10-23T22:07:19.440Z,100043.06
2022-10-23T22:10:10.655Z,100042.47
2022-10-23T22:12:59.126Z,100045.81
2022-10-23T22:15:47.559Z,100047.44
2022-10-23T22:18:36.682Z,100063.09
2022-10-23T22:21:28.155Z,100073.00
2022-10-23T22:24:17.490Z,100068.06
2022-10-23T22:27:07.778Z,100060.66
2022-10-23T22:29:57.008Z,100042.63
2022-10-23T22:32:45.720Z,100030.25
2022-10-23T22:35:34.408Z,100023.50
2022-10-23T22:38:22.871Z,100014.63
2022-10-23T22:41:11.446Z,100001.50
2022-10-23T22:44:01.455Z,99999.47
2022-10-23T22:46:49.975Z,99992.25
2022-10-23T22:49:39.475Z,99999.06
2022-10-23T22:52:28.296Z,100001.94
2022-10-23T22:55:16.777Z,99998.69
2022-10-23T22:58:05.286Z,100001.34
2022-10-23T23:00:57.181Z,100002.38
2022-10-23T23:03:46.304Z,100001.56
2022-10-23T23:06:35.284Z,100006.69
2022-10-23T23:09:23.808Z,100016.38
2022-10-23T23:12:13.682Z,100015.59
2022-10-23T23:15:02.246Z,100016.00
2022-10-23T23:17:52.221Z,99988.03
2022-10-23T23:20:43.105Z,99976.94
2022-10-23T23:23:31.939Z,100001.81
2022-10-23T23:26:22.788Z,99986.59
2022-10-23T23:29:11.247Z,99989.25
2022-10-23T23:31:59.716Z,99996.69
2022-10-23T23:34:52.324Z,99985.97
2022-10-23T23:37:40.737Z,99985.97
2022-10-23T23:40:29.490Z,99992.97
2022-10-23T23:43:17.876Z,99999.34
2022-10-23T23:46:06.673Z,100005.53
2022-10-23T23:48:57.140Z,100007.81
2022-10-23T23:51:46.915Z,100001.22
2022-10-23T23:54:35.373Z,100003.66
2022-10-23T23:57:23.849Z,99989.25
